sensor_id;sensor_type;location;lat;lon;timestamp;temperature;humidity
71188;DHT22;58893;53.130;8.158;2023-03-01T00:02:03;4.30;65.60
71188;DHT22;58893;53.130;8.158;2023-03-01T00:04:30;4.20;65.50
71188;DHT22;58893;53.130;8.158;2023-03-01T00:06:56;4.20;65.60
71188;DHT22;58893;53.130;8.158;2023-03-01T00:09:22;4.20;65.70
71188;DHT22;58893;53.130;8.158;2023-03-01T00:11:47;4.20;65.90
71188;DHT22;58893;53.130;8.158;2023-03-01T00:14:13;4.10;65.90
71188;DHT22;58893;53.130;8.158;2023-03-01T00:16:42;4.10;65.90
71188;DHT22;58893;53.130;8.158;2023-03-01T00:19:12;4.10;65.90
71188;DHT22;58893;53.130;8.158;2023-03-01T00:21:38;4.10;66.10
71188;DHT22;58893;53.130;8.158;2023-03-01T00:24:04;4.10;66.20
71188;DHT22;58893;53.130;8.158;2023-03-01T00:26:30;4.10;66.30
71188;DHT22;58893;53.130;8.158;2023-03-01T00:28:57;4.00;66.10
71188;DHT22;58893;53.130;8.158;2023-03-01T00:31:24;4.00;66.10
71188;DHT22;58893;53.130;8.158;2023-03-01T00:33:54;4.00;66.00
71188;DHT22;58893;53.130;8.158;2023-03-01T00:36:23;4.00;66.10
71188;DHT22;58893;53.130;8.158;2023-03-01T00:38:49;4.00;66.10
71188;DHT22;58893;53.130;8.158;2023-03-01T00:41:17;4.00;66.30
71188;DHT22;58893;53.130;8.158;2023-03-01T00:43:43;3.90;66.40
71188;DHT22;58893;53.130;8.158;2023-03-01T00:46:12;3.90;66.40
71188;DHT22;58893;53.130;8.158;2023-03-01T00:48:38;3.90;66.40
71188;DHT22;58893;53.130;8.158;2023-03-01T00:51:05;3.90;66.40
71188;DHT22;58893;53.130;8.158;2023-03-01T00:53:32;3.90;66.30
71188;DHT22;58893;53.130;8.158;2023-03-01T00:55:58;3.90;66.00
71188;DHT22;58893;53.130;8.158;2023-03-01T00:58:25;3.90;65.90
71188;DHT22;58893;53.130;8.158;2023-03-01T01:00:51;3.90;65.80
71188;DHT22;58893;53.130;8.158;2023-03-01T01:03:18;3.80;65.50
71188;DHT22;58893;53.130;8.158;2023-03-01T01:05:43;3.80;65.60
71188;DHT22;58893;53.130;8.158;2023-03-01T01:08:09;3.80;65.50
71188;DHT22;58893;53.130;8.158;2023-03-01T01:10:35;3.80;65.40
71188;DHT22;58893;53.130;8.158;2023-03-01T01:13:01;3.80;65.50
71188;DHT22;58893;53.130;8.158;2023-03-01T01:15:26;3.70;65.40
71188;DHT22;58893;53.130;8.158;2023-03-01T01:17:52;3.70;66.00
71188;DHT22;58893;53.130;8.158;2023-03-01T01:20:18;3.70;65.30
71188;DHT22;58893;53.130;8.158;2023-03-01T01:22:44;3.70;65.30
71188;DHT22;58893;53.130;8.158;2023-03-01T01:25:09;3.60;65.30
71188;DHT22;58893;53.130;8.158;2023-03-01T01:27:36;3.60;65.30
71188;DHT22;58893;53.130;8.158;2023-03-01T01:30:03;3.60;65.30
71188;DHT22;58893;53.130;8.158;2023-03-01T01:32:28;3.60;65.40
71188;DHT22;58893;53.130;8.158;2023-03-01T01:34:54;3.50;65.30
71188;DHT22;58893;53.130;8.158;2023-03-01T01:37:20;3.50;65.30
71188;DHT22;58893;53.130;8.158;2023-03-01T01:39:45;3.50;65.40
71188;DHT22;58893;53.130;8.158;2023-03-01T01:42:15;3.50;65.40
71188;DHT22;58893;53.130;8.158;2023-03-01T01:44:42;3.40;65.40
71188;DHT22;58893;53.130;8.158;2023-03-01T01:47:20;3.40;65.40
71188;DHT22;58893;53.130;8.158;2023-03-01T01:49:49;3.40;65.40
71188;DHT22;58893;53.130;8.158;2023-03-01T01:52:26;3.40;65.40
71188;DHT22;58893;53.130;8.158;2023-03-01T01:55:05;3.40;65.40
71188;DHT22;58893;53.130;8.158;2023-03-01T01:57:36;3.40;65.40
71188;DHT22;58893;53.130;8.158;2023-03-01T02:02:37;3.30;65.30
71188;DHT22;58893;53.130;8.158;2023-03-01T02:05:24;3.30;65.40
71188;DHT22;58893;53.130;8.158;2023-03-01T02:07:52;3.30;65.20
71188;DHT22;58893;53.130;8.158;2023-03-01T02:10:19;3.30;65.20
71188;DHT22;58893;53.130;8.158;2023-03-01T02:12:45;3.30;65.30
71188;DHT22;58893;53.130;8.158;2023-03-01T02:15:11;3.30;65.30
71188;DHT22;58893;53.130;8.158;2023-03-01T02:17:37;3.30;65.40
71188;DHT22;58893;53.130;8.158;2023-03-01T02:20:15;3.20;65.50
71188;DHT22;58893;53.130;8.158;2023-03-01T02:22:45;3.20;66.00
71188;DHT22;58893;53.130;8.158;2023-03-01T02:30:33;3.20;66.70
71188;DHT22;58893;53.130;8.158;2023-03-01T02:33:00;3.20;66.80
71188;DHT22;58893;53.130;8.158;2023-03-01T02:35:32;3.20;66.70
71188;DHT22;58893;53.130;8.158;2023-03-01T02:37:58;3.20;66.80
71188;DHT22;58893;53.130;8.158;2023-03-01T02:40:28;3.20;67.00
71188;DHT22;58893;53.130;8.158;2023-03-01T02:42:57;3.20;67.20
71188;DHT22;58893;53.130;8.158;2023-03-01T02:45:24;3.10;67.30
71188;DHT22;58893;53.130;8.158;2023-03-01T02:47:53;3.10;67.50
71188;DHT22;58893;53.130;8.158;2023-03-01T02:55:28;3.00;67.70
71188;DHT22;58893;53.130;8.158;2023-03-01T02:57:54;2.90;67.60
71188;DHT22;58893;53.130;8.158;2023-03-01T03:00:24;2.90;67.70
71188;DHT22;58893;53.130;8.158;2023-03-01T03:02:53;2.90;67.70
71188;DHT22;58893;53.130;8.158;2023-03-01T03:05:30;2.90;67.80
71188;DHT22;58893;53.130;8.158;2023-03-01T03:07:58;2.90;67.80
71188;DHT22;58893;53.130;8.158;2023-03-01T03:10:29;2.90;67.80
71188;DHT22;58893;53.130;8.158;2023-03-01T03:12:57;2.90;67.70
71188;DHT22;58893;53.130;8.158;2023-03-01T03:15:23;2.90;67.80
71188;DHT22;58893;53.130;8.158;2023-03-01T03:17:50;2.90;67.70
71188;DHT22;58893;53.130;8.158;2023-03-01T03:20:18;2.90;67.70
71188;DHT22;58893;53.130;8.158;2023-03-01T03:22:47;2.90;67.70
71188;DHT22;58893;53.130;8.158;2023-03-01T03:25:12;2.90;67.60
71188;DHT22;58893;53.130;8.158;2023-03-01T03:27:40;2.90;67.40
71188;DHT22;58893;53.130;8.158;2023-03-01T03:30:08;2.90;67.20
71188;DHT22;58893;53.130;8.158;2023-03-01T03:32:37;2.90;67.10
71188;DHT22;58893;53.130;8.158;2023-03-01T03:35:04;2.90;67.00
71188;DHT22;58893;53.130;8.158;2023-03-01T03:37:36;2.90;66.80
71188;DHT22;58893;53.130;8.158;2023-03-01T03:40:20;2.80;66.60
71188;DHT22;58893;53.130;8.158;2023-03-01T03:42:46;2.80;66.40
71188;DHT22;58893;53.130;8.158;2023-03-01T03:45:12;2.80;66.20
71188;DHT22;58893;53.130;8.158;2023-03-01T03:47:37;2.80;66.20
71188;DHT22;58893;53.130;8.158;2023-03-01T03:50:03;2.80;66.20
71188;DHT22;58893;53.130;8.158;2023-03-01T03:52:28;2.80;65.90
71188;DHT22;58893;53.130;8.158;2023-03-01T03:54:54;2.80;65.70
71188;DHT22;58893;53.130;8.158;2023-03-01T03:57:20;2.80;65.30
71188;DHT22;58893;53.130;8.158;2023-03-01T03:59:46;2.70;64.90
71188;DHT22;58893;53.130;8.158;2023-03-01T04:02:12;2.70;64.70
71188;DHT22;58893;53.130;8.158;2023-03-01T04:04:37;2.70;64.50
71188;DHT22;58893;53.130;8.158;2023-03-01T04:07:03;2.70;64.20
71188;DHT22;58893;53.130;8.158;2023-03-01T04:09:29;2.70;64.10
71188;DHT22;58893;53.130;8.158;2023-03-01T04:11:55;2.70;64.20
71188;DHT22;58893;53.130;8.158;2023-03-01T04:14:21;2.60;63.90
71188;DHT22;58893;53.130;8.158;2023-03-01T04:16:46;2.60;63.90
71188;DHT22;58893;53.130;8.158;2023-03-01T04:19:12;2.60;63.70
71188;DHT22;58893;53.130;8.158;2023-03-01T04:21:40;2.60;63.60
71188;DHT22;58893;53.130;8.158;2023-03-01T04:24:06;2.60;63.50
71188;DHT22;58893;53.130;8.158;2023-03-01T04:26:32;2.50;63.40
71188;DHT22;58893;53.130;8.158;2023-03-01T04:28:57;2.50;63.60
71188;DHT22;58893;53.130;8.158;2023-03-01T04:31:23;2.50;63.70
71188;DHT22;58893;53.130;8.158;2023-03-01T04:33:53;2.40;63.90
71188;DHT22;58893;53.130;8.158;2023-03-01T04:36:26;2.40;64.10
71188;DHT22;58893;53.130;8.158;2023-03-01T04:38:53;2.40;64.30
71188;DHT22;58893;53.130;8.158;2023-03-01T04:41:21;2.30;64.60
71188;DHT22;58893;53.130;8.158;2023-03-01T04:43:47;2.30;64.70
71188;DHT22;58893;53.130;8.158;2023-03-01T04:46:16;2.30;65.00
71188;DHT22;58893;53.130;8.158;2023-03-01T04:48:43;2.30;65.40
71188;DHT22;58893;53.130;8.158;2023-03-01T04:51:09;2.30;65.50
71188;DHT22;58893;53.130;8.158;2023-03-01T04:53:35;2.30;65.70
71188;DHT22;58893;53.130;8.158;2023-03-01T04:56:03;2.30;65.80
71188;DHT22;58893;53.130;8.158;2023-03-01T04:58:29;2.30;66.00
71188;DHT22;58893;53.130;8.158;2023-03-01T05:00:55;2.30;66.00
71188;DHT22;58893;53.130;8.158;2023-03-01T05:03:22;2.30;66.00
71188;DHT22;58893;53.130;8.158;2023-03-01T05:05:49;2.30;66.00
71188;DHT22;58893;53.130;8.158;2023-03-01T05:08:15;2.30;65.90
71188;DHT22;58893;53.130;8.158;2023-03-01T05:10:52;2.30;66.00
71188;DHT22;58893;53.130;8.158;2023-03-01T05:13:19;2.30;66.00
71188;DHT22;58893;53.130;8.158;2023-03-01T05:15:58;2.30;66.00
71188;DHT22;58893;53.130;8.158;2023-03-01T05:18:24;2.30;66.00
71188;DHT22;58893;53.130;8.158;2023-03-01T05:20:55;2.30;66.00
71188;DHT22;58893;53.130;8.158;2023-03-01T05:23:24;2.40;66.10
71188;DHT22;58893;53.130;8.158;2023-03-01T05:25:49;2.40;65.90
71188;DHT22;58893;53.130;8.158;2023-03-01T05:28:18;2.40;65.80
71188;DHT22;58893;53.130;8.158;2023-03-01T05:30:44;2.40;65.60
71188;DHT22;58893;53.130;8.158;2023-03-01T05:33:10;2.40;65.40
71188;DHT22;58893;53.130;8.158;2023-03-01T05:35:39;2.40;65.30
71188;DHT22;58893;53.130;8.158;2023-03-01T05:38:06;2.40;65.20
71188;DHT22;58893;53.130;8.158;2023-03-01T05:40:33;2.40;65.00
71188;DHT22;58893;53.130;8.158;2023-03-01T05:42:59;2.40;64.90
71188;DHT22;58893;53.130;8.158;2023-03-01T05:45:26;2.40;64.90
71188;DHT22;58893;53.130;8.158;2023-03-01T05:47:53;2.40;65.50
71188;DHT22;58893;53.130;8.158;2023-03-01T05:50:25;2.40;64.70
71188;DHT22;58893;53.130;8.158;2023-03-01T05:53:00;2.30;64.40
71188;DHT22;58893;53.130;8.158;2023-03-01T05:55:27;2.30;64.20
71188;DHT22;58893;53.130;8.158;2023-03-01T05:57:53;2.30;63.90
71188;DHT22;58893;53.130;8.158;2023-03-01T06:00:20;2.30;63.70
71188;DHT22;58893;53.130;8.158;2023-03-01T06:02:48;2.30;63.50
71188;DHT22;58893;53.130;8.158;2023-03-01T06:05:14;2.20;63.40
71188;DHT22;58893;53.130;8.158;2023-03-01T06:07:41;2.20;64.10
71188;DHT22;58893;53.130;8.158;2023-03-01T06:10:07;2.20;63.60
71188;DHT22;58893;53.130;8.158;2023-03-01T06:12:35;2.10;63.60
71188;DHT22;58893;53.130;8.158;2023-03-01T06:15:02;2.10;63.90
71188;DHT22;58893;53.130;8.158;2023-03-01T06:17:29;2.00;64.00
71188;DHT22;58893;53.130;8.158;2023-03-01T06:19:55;2.00;64.20
71188;DHT22;58893;53.130;8.158;2023-03-01T06:22:21;2.00;64.20
71188;DHT22;58893;53.130;8.158;2023-03-01T06:24:46;2.00;64.40
71188;DHT22;58893;53.130;8.158;2023-03-01T06:27:12;2.00;64.50
71188;DHT22;58893;53.130;8.158;2023-03-01T06:29:37;2.00;64.50
71188;DHT22;58893;53.130;8.158;2023-03-01T06:32:03;2.00;64.50
71188;DHT22;58893;53.130;8.158;2023-03-01T06:34:29;2.00;64.50
71188;DHT22;58893;53.130;8.158;2023-03-01T06:36:55;2.00;64.60
71188;DHT22;58893;53.130;8.158;2023-03-01T06:39:20;2.00;64.60
71188;DHT22;58893;53.130;8.158;2023-03-01T06:41:46;2.00;64.50
71188;DHT22;58893;53.130;8.158;2023-03-01T06:44:11;2.00;64.60
71188;DHT22;58893;53.130;8.158;2023-03-01T06:46:39;2.00;64.70
71188;DHT22;58893;53.130;8.158;2023-03-01T06:49:04;2.00;64.80
71188;DHT22;58893;53.130;8.158;2023-03-01T06:51:35;2.00;65.00
71188;DHT22;58893;53.130;8.158;2023-03-01T06:54:00;2.00;65.10
71188;DHT22;58893;53.130;8.158;2023-03-01T06:56:26;2.00;65.30
71188;DHT22;58893;53.130;8.158;2023-03-01T06:58:52;2.10;65.60
71188;DHT22;58893;53.130;8.158;2023-03-01T07:01:17;2.10;65.70
71188;DHT22;58893;53.130;8.158;2023-03-01T07:03:43;2.10;65.80
71188;DHT22;58893;53.130;8.158;2023-03-01T07:06:10;2.10;65.90
71188;DHT22;58893;53.130;8.158;2023-03-01T07:08:35;2.20;66.10
71188;DHT22;58893;53.130;8.158;2023-03-01T07:11:01;2.20;66.30
71188;DHT22;58893;53.130;8.158;2023-03-01T07:13:28;2.20;66.50
71188;DHT22;58893;53.130;8.158;2023-03-01T07:15:54;2.30;66.70
71188;DHT22;58893;53.130;8.158;2023-03-01T07:18:20;2.30;66.80
71188;DHT22;58893;53.130;8.158;2023-03-01T07:20:45;2.30;66.80
71188;DHT22;58893;53.130;8.158;2023-03-01T07:23:11;2.40;67.00
71188;DHT22;58893;53.130;8.158;2023-03-01T07:25:36;2.40;67.20
71188;DHT22;58893;53.130;8.158;2023-03-01T07:28:02;2.40;67.50
71188;DHT22;58893;53.130;8.158;2023-03-01T07:30:28;2.40;67.80
71188;DHT22;58893;53.130;8.158;2023-03-01T07:32:57;2.50;68.00
71188;DHT22;58893;53.130;8.158;2023-03-01T07:35:25;2.50;68.10
71188;DHT22;58893;53.130;8.158;2023-03-01T07:37:52;2.60;68.30
71188;DHT22;58893;53.130;8.158;2023-03-01T07:40:17;2.70;68.80
71188;DHT22;58893;53.130;8.158;2023-03-01T07:42:43;2.70;69.00
71188;DHT22;58893;53.130;8.158;2023-03-01T07:45:09;2.70;69.10
71188;DHT22;58893;53.130;8.158;2023-03-01T07:47:35;2.80;69.20
71188;DHT22;58893;53.130;8.158;2023-03-01T07:50:01;2.90;69.30
71188;DHT22;58893;53.130;8.158;2023-03-01T07:52:28;2.90;69.40
71188;DHT22;58893;53.130;8.158;2023-03-01T07:54:54;2.90;69.40
71188;DHT22;58893;53.130;8.158;2023-03-01T07:57:19;3.00;69.40
71188;DHT22;58893;53.130;8.158;2023-03-01T07:59:45;3.00;69.50
71188;DHT22;58893;53.130;8.158;2023-03-01T08:02:11;3.10;69.60
71188;DHT22;58893;53.130;8.158;2023-03-01T08:04:37;3.10;69.50
71188;DHT22;58893;53.130;8.158;2023-03-01T08:07:05;3.20;69.50
71188;DHT22;58893;53.130;8.158;2023-03-01T08:09:31;3.20;69.50
71188;DHT22;58893;53.130;8.158;2023-03-01T08:11:57;3.20;69.60
71188;DHT22;58893;53.130;8.158;2023-03-01T08:14:26;3.20;69.80
71188;DHT22;58893;53.130;8.158;2023-03-01T08:16:51;3.30;70.10
71188;DHT22;58893;53.130;8.158;2023-03-01T08:19:17;3.40;70.40
71188;DHT22;58893;53.130;8.158;2023-03-01T08:21:43;3.50;70.70
71188;DHT22;58893;53.130;8.158;2023-03-01T08:24:09;3.50;70.90
71188;DHT22;58893;53.130;8.158;2023-03-01T08:26:37;3.60;71.30
71188;DHT22;58893;53.130;8.158;2023-03-01T08:29:03;3.70;72.30
71188;DHT22;58893;53.130;8.158;2023-03-01T08:31:34;3.80;72.50
71188;DHT22;58893;53.130;8.158;2023-03-01T08:34:10;3.90;72.70
71188;DHT22;58893;53.130;8.158;2023-03-01T08:36:38;4.00;73.00
71188;DHT22;58893;53.130;8.158;2023-03-01T08:39:05;4.10;73.20
71188;DHT22;58893;53.130;8.158;2023-03-01T08:41:31;4.20;74.40
71188;DHT22;58893;53.130;8.158;2023-03-01T08:43:57;4.50;74.70
71188;DHT22;58893;53.130;8.158;2023-03-01T08:46:36;4.60;74.10
71188;DHT22;58893;53.130;8.158;2023-03-01T08:49:15;4.90;73.70
71188;DHT22;58893;53.130;8.158;2023-03-01T08:51:42;5.10;73.40
71188;DHT22;58893;53.130;8.158;2023-03-01T08:54:14;5.30;73.00
71188;DHT22;58893;53.130;8.158;2023-03-01T08:56:40;5.50;72.50
71188;DHT22;58893;53.130;8.158;2023-03-01T08:59:07;5.70;71.20
71188;DHT22;58893;53.130;8.158;2023-03-01T09:01:32;5.90;69.80
71188;DHT22;58893;53.130;8.158;2023-03-01T09:03:58;6.00;69.20
71188;DHT22;58893;53.130;8.158;2023-03-01T09:06:24;6.10;68.90
71188;DHT22;58893;53.130;8.158;2023-03-01T09:08:50;6.30;68.90
71188;DHT22;58893;53.130;8.158;2023-03-01T09:11:21;6.40;68.40
71188;DHT22;58893;53.130;8.158;2023-03-01T09:13:47;6.50;68.00
71188;DHT22;58893;53.130;8.158;2023-03-01T09:16:16;6.60;67.60
71188;DHT22;58893;53.130;8.158;2023-03-01T09:18:43;6.70;67.40
71188;DHT22;58893;53.130;8.158;2023-03-01T09:21:16;6.80;67.20
71188;DHT22;58893;53.130;8.158;2023-03-01T09:23:46;6.90;67.00
71188;DHT22;58893;53.130;8.158;2023-03-01T09:26:15;7.00;66.60
71188;DHT22;58893;53.130;8.158;2023-03-01T09:28:45;7.00;65.80
71188;DHT22;58893;53.130;8.158;2023-03-01T09:31:12;7.10;65.10
71188;DHT22;58893;53.130;8.158;2023-03-01T09:33:39;7.10;64.80
71188;DHT22;58893;53.130;8.158;2023-03-01T09:36:07;7.10;64.90
71188;DHT22;58893;53.130;8.158;2023-03-01T09:38:33;7.20;65.00
71188;DHT22;58893;53.130;8.158;2023-03-01T09:41:00;7.20;64.70
71188;DHT22;58893;53.130;8.158;2023-03-01T09:43:42;7.20;64.20
71188;DHT22;58893;53.130;8.158;2023-03-01T09:46:12;7.30;64.20
71188;DHT22;58893;53.130;8.158;2023-03-01T09:49:03;7.30;64.30
71188;DHT22;58893;53.130;8.158;2023-03-01T09:51:33;7.40;64.30
71188;DHT22;58893;53.130;8.158;2023-03-01T09:54:01;7.40;63.70
71188;DHT22;58893;53.130;8.158;2023-03-01T09:56:38;7.50;63.30
71188;DHT22;58893;53.130;8.158;2023-03-01T10:09:38;7.80;59.10
71188;DHT22;58893;53.130;8.158;2023-03-01T10:12:09;7.80;58.40
71188;DHT22;58893;53.130;8.158;2023-03-01T10:20:22;8.00;56.70
71188;DHT22;58893;53.130;8.158;2023-03-01T10:22:49;8.00;56.20
71188;DHT22;58893;53.130;8.158;2023-03-01T10:28:09;8.10;56.90
71188;DHT22;58893;53.130;8.158;2023-03-01T10:30:38;8.20;55.90
71188;DHT22;58893;53.130;8.158;2023-03-01T10:33:33;8.20;55.10
71188;DHT22;58893;53.130;8.158;2023-03-01T10:36:01;8.30;55.40
71188;DHT22;58893;53.130;8.158;2023-03-01T10:38:31;8.30;55.20
71188;DHT22;58893;53.130;8.158;2023-03-01T10:41:05;8.40;55.60
71188;DHT22;58893;53.130;8.158;2023-03-01T10:43:48;8.50;55.70
71188;DHT22;58893;53.130;8.158;2023-03-01T10:46:33;8.50;55.30
71188;DHT22;58893;53.130;8.158;2023-03-01T10:51:40;8.70;55.50
71188;DHT22;58893;53.130;8.158;2023-03-01T10:56:54;8.90;54.30
71188;DHT22;58893;53.130;8.158;2023-03-01T11:04:38;9.10;55.60
71188;DHT22;58893;53.130;8.158;2023-03-01T11:07:03;9.10;56.00
71188;DHT22;58893;53.130;8.158;2023-03-01T11:09:33;9.10;55.70
71188;DHT22;58893;53.130;8.158;2023-03-01T11:12:05;9.20;55.60
71188;DHT22;58893;53.130;8.158;2023-03-01T11:14:36;9.20;55.50
71188;DHT22;58893;53.130;8.158;2023-03-01T11:17:12;9.20;55.50
71188;DHT22;58893;53.130;8.158;2023-03-01T11:19:41;9.20;56.00
71188;DHT22;58893;53.130;8.158;2023-03-01T11:22:16;9.20;56.20
71188;DHT22;58893;53.130;8.158;2023-03-01T11:24:52;9.30;56.30
71188;DHT22;58893;53.130;8.158;2023-03-01T11:27:23;9.30;56.60
71188;DHT22;58893;53.130;8.158;2023-03-01T11:32:27;9.30;56.70
71188;DHT22;58893;53.130;8.158;2023-03-01T11:35:04;9.30;56.80
71188;DHT22;58893;53.130;8.158;2023-03-01T11:40:35;9.20;56.80
71188;DHT22;58893;53.130;8.158;2023-03-01T12:08:43;9.00;57.60
71188;DHT22;58893;53.130;8.158;2023-03-01T12:11:27;9.00;57.80
71188;DHT22;58893;53.130;8.158;2023-03-01T12:25:13;9.00;58.50
71188;DHT22;58893;53.130;8.158;2023-03-01T12:27:56;9.10;59.40
71188;DHT22;58893;53.130;8.158;2023-03-01T12:38:37;9.10;58.90
71188;DHT22;58893;53.130;8.158;2023-03-01T12:51:35;9.30;59.60
71188;DHT22;58893;53.130;8.158;2023-03-01T12:54:16;9.30;59.70
71188;DHT22;58893;53.130;8.158;2023-03-01T12:56:45;9.30;59.90
71188;DHT22;58893;53.130;8.158;2023-03-01T13:02:32;9.40;59.30
71188;DHT22;58893;53.130;8.158;2023-03-01T13:05:13;9.40;59.10
71188;DHT22;58893;53.130;8.158;2023-03-01T13:07:59;9.40;59.00
71188;DHT22;58893;53.130;8.158;2023-03-01T13:13:02;9.50;59.00
71188;DHT22;58893;53.130;8.158;2023-03-01T13:15:33;9.50;58.90
71188;DHT22;58893;53.130;8.158;2023-03-01T13:18:03;9.50;58.80
71188;DHT22;58893;53.130;8.158;2023-03-01T13:31:04;9.50;59.20
71188;DHT22;58893;53.130;8.158;2023-03-01T13:35:59;9.50;59.20
71188;DHT22;58893;53.130;8.158;2023-03-01T13:41:27;9.60;59.50
71188;DHT22;58893;53.130;8.158;2023-03-01T13:46:51;9.60;59.60
71188;DHT22;58893;53.130;8.158;2023-03-01T13:49:25;9.70;60.10
71188;DHT22;58893;53.130;8.158;2023-03-01T13:51:52;9.70;60.30
71188;DHT22;58893;53.130;8.158;2023-03-01T13:54:29;9.70;60.30
71188;DHT22;58893;53.130;8.158;2023-03-01T13:56:57;9.70;60.50
71188;DHT22;58893;53.130;8.158;2023-03-01T13:59:23;9.80;61.40
71188;DHT22;58893;53.130;8.158;2023-03-01T14:01:57;9.80;61.00
71188;DHT22;58893;53.130;8.158;2023-03-01T14:04:29;9.80;61.10
71188;DHT22;58893;53.130;8.158;2023-03-01T14:09:43;9.80;61.00
71188;DHT22;58893;53.130;8.158;2023-03-01T14:17:51;9.80;60.50
71188;DHT22;58893;53.130;8.158;2023-03-01T14:20:24;9.80;60.50
71188;DHT22;58893;53.130;8.158;2023-03-01T14:22:54;9.80;60.50
71188;DHT22;58893;53.130;8.158;2023-03-01T14:25:30;9.80;60.50
71188;DHT22;58893;53.130;8.158;2023-03-01T14:28:00;9.70;60.40
71188;DHT22;58893;53.130;8.158;2023-03-01T14:30:37;9.80;60.70
71188;DHT22;58893;53.130;8.158;2023-03-01T14:33:06;9.80;60.60
71188;DHT22;58893;53.130;8.158;2023-03-01T14:35:36;9.80;60.80
71188;DHT22;58893;53.130;8.158;2023-03-01T14:38:02;9.80;61.10
71188;DHT22;58893;53.130;8.158;2023-03-01T14:43:00;9.80;61.20
71188;DHT22;58893;53.130;8.158;2023-03-01T14:45:28;9.80;61.20
71188;DHT22;58893;53.130;8.158;2023-03-01T14:47:59;9.80;60.90
71188;DHT22;58893;53.130;8.158;2023-03-01T14:50:29;9.80;61.00
71188;DHT22;58893;53.130;8.158;2023-03-01T14:52:58;9.80;61.00
71188;DHT22;58893;53.130;8.158;2023-03-01T14:55:37;9.80;61.30
71188;DHT22;58893;53.130;8.158;2023-03-01T14:58:05;9.80;61.50
71188;DHT22;58893;53.130;8.158;2023-03-01T15:00:33;9.80;61.80
71188;DHT22;58893;53.130;8.158;2023-03-01T15:03:07;9.80;62.20
71188;DHT22;58893;53.130;8.158;2023-03-01T15:05:39;9.80;62.50
71188;DHT22;58893;53.130;8.158;2023-03-01T15:08:06;9.80;62.90
71188;DHT22;58893;53.130;8.158;2023-03-01T15:10:34;9.80;63.10
71188;DHT22;58893;53.130;8.158;2023-03-01T15:13:19;9.80;63.10
71188;DHT22;58893;53.130;8.158;2023-03-01T15:15:47;9.80;63.30
71188;DHT22;58893;53.130;8.158;2023-03-01T15:18:17;9.90;63.60
71188;DHT22;58893;53.130;8.158;2023-03-01T15:20:44;9.80;63.60
71188;DHT22;58893;53.130;8.158;2023-03-01T15:23:23;9.80;63.70
71188;DHT22;58893;53.130;8.158;2023-03-01T15:25:51;9.80;63.90
71188;DHT22;58893;53.130;8.158;2023-03-01T15:31:35;9.80;64.40
71188;DHT22;58893;53.130;8.158;2023-03-01T15:34:25;9.80;64.50
71188;DHT22;58893;53.130;8.158;2023-03-01T15:36:53;9.80;64.50
71188;DHT22;58893;53.130;8.158;2023-03-01T15:41:58;9.70;64.70
71188;DHT22;58893;53.130;8.158;2023-03-01T15:44:30;9.70;64.80
71188;DHT22;58893;53.130;8.158;2023-03-01T15:46:57;9.70;65.00
71188;DHT22;58893;53.130;8.158;2023-03-01T15:49:41;9.70;65.30
71188;DHT22;58893;53.130;8.158;2023-03-01T15:55:04;9.70;65.50
71188;DHT22;58893;53.130;8.158;2023-03-01T15:57:30;9.70;65.60
71188;DHT22;58893;53.130;8.158;2023-03-01T15:59:56;9.70;65.90
71188;DHT22;58893;53.130;8.158;2023-03-01T16:02:23;9.60;65.90
71188;DHT22;58893;53.130;8.158;2023-03-01T16:04:50;9.60;66.00
71188;DHT22;58893;53.130;8.158;2023-03-01T16:07:16;9.60;66.80
71188;DHT22;58893;53.130;8.158;2023-03-01T16:09:42;9.60;67.00
71188;DHT22;58893;53.130;8.158;2023-03-01T16:12:13;9.60;66.30
71188;DHT22;58893;53.130;8.158;2023-03-01T16:14:39;9.60;66.40
71188;DHT22;58893;53.130;8.158;2023-03-01T16:17:05;9.60;66.60
71188;DHT22;58893;53.130;8.158;2023-03-01T16:19:30;9.60;66.70
71188;DHT22;58893;53.130;8.158;2023-03-01T16:21:56;9.60;66.90
71188;DHT22;58893;53.130;8.158;2023-03-01T16:24:22;9.50;66.80
71188;DHT22;58893;53.130;8.158;2023-03-01T16:26:47;9.50;67.10
71188;DHT22;58893;53.130;8.158;2023-03-01T16:29:13;9.50;67.20
71188;DHT22;58893;53.130;8.158;2023-03-01T16:31:40;9.40;67.30
71188;DHT22;58893;53.130;8.158;2023-03-01T16:34:05;9.40;67.50
71188;DHT22;58893;53.130;8.158;2023-03-01T16:36:31;9.40;67.60
71188;DHT22;58893;53.130;8.158;2023-03-01T16:38:58;9.40;67.70
71188;DHT22;58893;53.130;8.158;2023-03-01T16:41:26;9.30;67.80
71188;DHT22;58893;53.130;8.158;2023-03-01T16:43:52;9.30;67.90
71188;DHT22;58893;53.130;8.158;2023-03-01T16:46:25;9.30;68.00
71188;DHT22;58893;53.130;8.158;2023-03-01T16:48:52;9.30;68.10
71188;DHT22;58893;53.130;8.158;2023-03-01T16:51:18;9.20;68.20
71188;DHT22;58893;53.130;8.158;2023-03-01T16:53:44;9.20;68.40
71188;DHT22;58893;53.130;8.158;2023-03-01T16:56:11;9.20;68.80
71188;DHT22;58893;53.130;8.158;2023-03-01T16:58:38;9.10;69.10
71188;DHT22;58893;53.130;8.158;2023-03-01T17:01:09;9.10;69.60
71188;DHT22;58893;53.130;8.158;2023-03-01T17:03:36;9.10;70.20
71188;DHT22;58893;53.130;8.158;2023-03-01T17:06:07;9.00;70.40
71188;DHT22;58893;53.130;8.158;2023-03-01T17:08:33;9.00;71.00
71188;DHT22;58893;53.130;8.158;2023-03-01T17:11:19;9.00;71.00
71188;DHT22;58893;53.130;8.158;2023-03-01T17:13:45;8.90;71.20
71188;DHT22;58893;53.130;8.158;2023-03-01T17:16:13;8.90;71.50
71188;DHT22;58893;53.130;8.158;2023-03-01T17:18:39;8.90;72.20
71188;DHT22;58893;53.130;8.158;2023-03-01T17:21:06;8.80;72.70
71188;DHT22;58893;53.130;8.158;2023-03-01T17:23:32;8.80;73.50
71188;DHT22;58893;53.130;8.158;2023-03-01T17:25:59;8.80;74.10
71188;DHT22;58893;53.130;8.158;2023-03-01T17:28:28;8.70;74.70
71188;DHT22;58893;53.130;8.158;2023-03-01T17:30:54;8.70;75.30
71188;DHT22;58893;53.130;8.158;2023-03-01T17:33:20;8.60;75.90
71188;DHT22;58893;53.130;8.158;2023-03-01T17:35:46;8.50;76.30
71188;DHT22;58893;53.130;8.158;2023-03-01T17:38:13;8.40;76.70
71188;DHT22;58893;53.130;8.158;2023-03-01T17:40:43;8.40;77.20
71188;DHT22;58893;53.130;8.158;2023-03-01T17:43:11;8.30;77.60
71188;DHT22;58893;53.130;8.158;2023-03-01T17:45:37;8.20;78.00
71188;DHT22;58893;53.130;8.158;2023-03-01T17:48:04;8.20;78.40
71188;DHT22;58893;53.130;8.158;2023-03-01T17:50:30;8.10;78.80
71188;DHT22;58893;53.130;8.158;2023-03-01T17:52:56;8.10;79.30
71188;DHT22;58893;53.130;8.158;2023-03-01T17:55:23;8.00;79.50
71188;DHT22;58893;53.130;8.158;2023-03-01T17:57:49;7.90;79.80
71188;DHT22;58893;53.130;8.158;2023-03-01T18:00:16;7.90;80.10
71188;DHT22;58893;53.130;8.158;2023-03-01T18:02:42;7.80;80.40
71188;DHT22;58893;53.130;8.158;2023-03-01T18:05:08;7.80;80.70
71188;DHT22;58893;53.130;8.158;2023-03-01T18:07:34;7.70;80.90
71188;DHT22;58893;53.130;8.158;2023-03-01T18:10:00;7.70;81.20
71188;DHT22;58893;53.130;8.158;2023-03-01T18:12:25;7.60;81.40
71188;DHT22;58893;53.130;8.158;2023-03-01T18:14:51;7.60;81.60
71188;DHT22;58893;53.130;8.158;2023-03-01T18:17:22;7.50;81.60
71188;DHT22;58893;53.130;8.158;2023-03-01T18:19:47;7.50;81.90
71188;DHT22;58893;53.130;8.158;2023-03-01T18:22:13;7.50;82.10